Time;durP1;ratioP1;P1;durP2;ratioP2;P2;SDS_P1;SDS_P2;PMS_P1;PMS_P2;Temp;Humidity;BMP_temperature;BMP_pressure;BME280_temperature;BME280_humidity;BME280_pressure;Samples;Min_cycle;Max_cycle;Signal;HPM_P1;HPM_P2
2022/08/27 00:01:53;;;;;;;3.22;1.17;;;;;;;18.48;62.40;101589.41;5099240;27;20064;-77
2022/08/27 00:04:20;;;;;;;3.33;1.40;;;;;;;18.43;62.75;101581.63;5104912;28;20126;-76
2022/08/27 00:06:48;;;;;;;2.45;1.30;;;;;;;18.43;63.20;101586.13;5089683;27;20076;-77
2022/08/27 00:09:15;;;;;;;7.18;1.20;;;;;;;18.44;63.11;101585.19;5089159;28;20102;-77
2022/08/27 00:11:53;;;;;;;4.13;1.15;;;;;;;18.45;63.00;101576.22;5083549;28;20123;-75
2022/08/27 00:14:21;;;;;;;4.32;1.30;;;;;;;18.47;62.96;101574.31;5096817;28;20041;-76
2022/08/27 00:16:49;;;;;;;3.65;1.27;;;;;;;18.48;62.54;101581.38;5082301;28;20041;-75
2022/08/27 00:19:17;;;;;;;5.82;1.30;;;;;;;18.49;62.53;101579.59;5079934;28;20044;-75
2022/08/27 00:21:45;;;;;;;6.28;1.38;;;;;;;18.44;62.54;101575.34;5092980;28;20538;-76
2022/08/27 00:24:13;;;;;;;3.85;1.25;;;;;;;18.42;62.43;101573.72;5089334;27;20117;-75
2022/08/27 00:26:40;;;;;;;5.00;1.40;;;;;;;18.39;63.04;101566.72;5082879;28;20048;-76
2022/08/27 00:29:09;;;;;;;2.80;1.17;;;;;;;18.39;62.80;101569.41;5082693;28;20098;-76
2022/08/27 00:31:36;;;;;;;4.95;1.30;;;;;;;18.36;63.06;101566.88;5094135;28;20070;-76
2022/08/27 00:34:04;;;;;;;4.85;1.60;;;;;;;18.37;63.07;101565.06;5088330;27;20971;-76
2022/08/27 00:36:33;;;;;;;4.38;1.20;;;;;;;18.36;62.84;101563.38;5078094;28;20915;-76
2022/08/27 00:39:01;;;;;;;4.32;1.40;;;;;;;18.33;63.07;101564.38;5087005;28;20111;-76
2022/08/27 00:41:29;;;;;;;2.72;1.02;;;;;;;18.34;63.06;101573.25;5075168;28;20632;-77
2022/08/27 00:44:00;;;;;;;5.32;1.30;;;;;;;18.33;63.19;101564.38;5094600;28;20036;-77
2022/08/27 00:46:38;;;;;;;3.30;1.20;;;;;;;18.38;63.01;101564.13;5078936;28;20045;-77
2022/08/27 00:49:17;;;;;;;6.78;1.27;;;;;;;18.37;62.83;101570.41;5083118;28;20041;-78
2022/08/27 00:51:54;;;;;;;4.50;1.27;;;;;;;18.29;63.03;101571.66;5081701;28;20037;-77
2022/08/27 00:54:25;;;;;;;4.07;1.50;;;;;;;18.29;63.34;101570.81;5075202;28;20445;-77
2022/08/27 00:56:53;;;;;;;3.63;1.20;;;;;;;18.34;63.61;101574.09;5086295;28;20121;-76
2022/08/27 00:59:27;;;;;;;4.60;1.55;;;;;;;18.37;63.28;101573.94;5085828;28;20099;-76
2022/08/27 01:04:54;;;;;;;4.28;1.23;;;;;;;18.35;63.43;101570.50;5090300;28;20539;-77
2022/08/27 01:07:25;;;;;;;6.28;1.42;;;;;;;18.37;63.35;101578.41;5090080;28;20496;-77
2022/08/27 01:09:59;;;;;;;2.75;1.30;;;;;;;18.33;63.39;101575.03;5090562;28;20037;-77
2022/08/27 01:12:31;;;;;;;6.50;1.50;;;;;;;18.32;63.46;101575.97;5075512;28;20057;-77
2022/08/27 01:15:04;;;;;;;3.75;1.50;;;;;;;18.28;63.46;101579.75;5085164;28;20045;-77
2022/08/27 01:17:32;;;;;;;3.70;1.40;;;;;;;18.30;63.13;101577.88;5089089;28;20117;-76
2022/08/27 01:20:07;;;;;;;6.13;1.42;;;;;;;18.24;63.06;101568.38;5084429;28;20065;-76
2022/08/27 01:23:30;;;;;;;3.53;1.30;;;;;;;18.19;63.29;101572.22;5074592;28;20084;-76
2022/08/27 01:26:02;;;;;;;5.97;1.63;;;;;;;18.09;63.39;101574.47;5080861;28;20091;-76
2022/08/27 01:28:30;;;;;;;5.00;1.30;;;;;;;18.05;63.74;101564.94;5093488;28;20118;-76
2022/08/27 01:31:07;;;;;;;7.70;1.50;;;;;;;18.03;63.93;101567.66;5087401;28;20539;-77
2022/08/27 01:33:41;;;;;;;5.10;1.30;;;;;;;18.04;63.84;101565.88;5093322;27;20123;-78
2022/08/27 01:36:09;;;;;;;5.07;1.40;;;;;;;17.96;64.12;101555.53;5074660;28;20045;-77
2022/08/27 01:38:36;;;;;;;4.15;1.30;;;;;;;17.96;64.34;101563.53;5073456;28;20041;-77
2022/08/27 01:41:03;;;;;;;6.10;1.50;;;;;;;17.97;64.45;101562.63;5087815;28;20492;-77
2022/08/27 01:43:31;;;;;;;5.95;1.67;;;;;;;17.97;64.49;101566.16;5082324;28;20046;-76
2022/08/27 01:45:58;;;;;;;5.80;1.92;;;;;;;17.95;64.34;101560.03;5075350;28;20134;-76
2022/08/27 01:48:25;;;;;;;4.70;1.30;;;;;;;17.93;64.72;101558.34;5073399;28;20033;-76
2022/08/27 01:50:52;;;;;;;4.40;1.40;;;;;;;17.95;64.55;101561.81;5080401;28;20037;-76
2022/08/27 01:53:24;;;;;;;5.20;1.55;;;;;;;17.92;64.53;101565.50;5080344;28;20048;-76
2022/08/27 01:55:53;;;;;;;6.13;1.20;;;;;;;17.87;64.77;101559.53;5078668;28;20100;-77
2022/08/27 01:58:26;;;;;;;3.47;1.23;;;;;;;17.88;64.86;101565.72;5086950;28;20063;-77
2022/08/27 02:00:59;;;;;;;3.20;1.40;;;;;;;17.83;65.07;101558.81;5087944;28;20455;-76
2022/08/27 02:03:26;;;;;;;4.03;1.50;;;;;;;17.83;64.83;101561.47;5073003;28;20053;-77
2022/08/27 02:05:53;;;;;;;7.15;1.33;;;;;;;17.77;65.06;101555.59;5086041;28;20146;-77
2022/08/27 02:08:21;;;;;;;4.38;1.50;;;;;;;17.76;65.30;101560.06;5092708;28;20106;-77
2022/08/27 02:10:50;;;;;;;6.35;1.55;;;;;;;17.77;65.37;101552.91;5076629;28;20068;-77
2022/08/27 02:13:17;;;;;;;5.13;1.35;;;;;;;17.79;65.38;101551.03;5083300;28;20144;-76
2022/08/27 02:15:45;;;;;;;7.63;1.63;;;;;;;17.75;65.38;101549.47;5088143;28;20049;-75
2022/08/27 02:18:13;;;;;;;5.75;1.60;;;;;;;17.73;65.66;101543.34;5090001;28;20129;-75
2022/08/27 02:20:44;;;;;;;3.45;1.40;;;;;;;17.73;65.77;101540.69;5085098;27;20095;-76
2022/08/27 02:23:14;;;;;;;3.55;1.48;;;;;;;17.72;65.82;101537.16;5091060;28;20036;-77
2022/08/27 02:25:41;;;;;;;3.80;1.55;;;;;;;17.72;65.86;101537.16;5091810;28;20128;-77
2022/08/27 02:28:09;;;;;;;4.15;1.50;;;;;;;17.71;66.04;101538.06;5092595;28;20049;-76
2022/08/27 02:30:38;;;;;;;4.82;1.77;;;;;;;17.72;65.86;101536.28;5091889;28;20818;-76
2022/08/27 02:33:06;;;;;;;5.55;1.83;;;;;;;17.70;65.83;101541.72;5087926;28;20512;-77
2022/08/27 02:35:39;;;;;;;4.28;1.50;;;;;;;17.70;65.88;101536.38;5078295;28;20457;-77
2022/08/27 02:38:07;;;;;;;5.20;1.50;;;;;;;17.64;66.04;101545.53;5085514;28;20045;-76
2022/08/27 02:40:36;;;;;;;4.85;1.48;;;;;;;17.65;66.14;101541.06;5087347;28;20416;-77
2022/08/27 02:43:04;;;;;;;6.65;1.80;;;;;;;17.64;66.17;101555.31;5089544;28;20040;-76
2022/08/27 02:45:33;;;;;;;4.10;1.52;;;;;;;17.63;66.24;101550.94;5098335;27;20495;-76
2022/08/27 02:48:02;;;;;;;3.88;1.48;;;;;;;17.63;66.40;101554.47;5087452;28;20076;-76
2022/08/27 02:50:30;;;;;;;4.93;1.92;;;;;;;17.65;66.22;101552.56;5092283;28;20055;-76
2022/08/27 02:52:57;;;;;;;5.43;1.77;;;;;;;17.62;66.38;101544.75;5100835;28;20183;-76
2022/08/27 02:55:24;;;;;;;6.47;1.60;;;;;;;17.65;66.35;101538.41;5094968;27;20037;-76
2022/08/27 02:57:51;;;;;;;7.13;1.60;;;;;;;17.61;66.46;101539.47;5093284;28;20112;-75
2022/08/27 03:00:22;;;;;;;5.47;1.75;;;;;;;17.63;66.64;101537.59;5100249;28;20044;-76
2022/08/27 03:02:50;;;;;;;3.67;1.67;;;;;;;17.63;66.56;101538.47;5092059;28;20362;-76
2022/08/27 03:05:20;;;;;;;4.43;1.52;;;;;;;17.63;66.47;101538.47;5080163;28;20158;-76
2022/08/27 03:07:48;;;;;;;4.30;1.67;;;;;;;17.61;66.50;101539.47;5092131;28;20152;-76
2022/08/27 03:10:19;;;;;;;5.07;1.67;;;;;;;17.60;66.72;101541.28;5096201;28;20783;-76
2022/08/27 03:12:47;;;;;;;5.28;1.90;;;;;;;17.59;66.43;101539.56;5079709;28;20071;-76
2022/08/27 03:15:17;;;;;;;6.63;1.70;;;;;;;17.57;66.62;101528.09;5091347;28;20098;-76
2022/08/27 03:20:32;;;;;;;5.47;1.92;;;;;;;17.61;66.56;101542.13;5073986;28;20098;-76
2022/08/27 03:22:59;;;;;;;6.25;1.90;;;;;;;17.62;66.53;101534.09;5086140;28;20045;-76
2022/08/27 03:25:26;;;;;;;6.10;1.90;;;;;;;17.62;66.57;101542.09;5098401;28;20038;-76
2022/08/27 03:27:53;;;;;;;5.75;2.00;;;;;;;17.64;66.48;101539.31;5083925;28;20075;-76
2022/08/27 03:30:22;;;;;;;4.93;1.90;;;;;;;17.64;66.39;101545.53;5087908;28;20071;-76
2022/08/27 03:32:50;;;;;;;5.90;1.85;;;;;;;17.65;66.54;101539.25;5082676;28;20041;-78
2022/08/27 03:35:21;;;;;;;6.68;2.08;;;;;;;17.63;66.51;101542.94;5085231;28;20724;-76
2022/08/27 03:37:49;;;;;;;5.57;1.70;;;;;;;17.65;66.49;101549.06;5082029;28;20094;-75
2022/08/27 03:40:17;;;;;;;5.28;2.10;;;;;;;17.65;66.68;101549.91;5090763;27;20490;-76
2022/08/27 03:42:44;;;;;;;5.20;1.77;;;;;;;17.66;66.55;101543.63;5079400;28;20440;-77
2022/08/27 03:45:12;;;;;;;5.90;1.60;;;;;;;17.72;66.17;101550.47;5086637;28;20036;-77
2022/08/27 03:47:39;;;;;;;3.97;1.67;;;;;;;17.68;66.14;101551.59;5082938;28;20094;-78
2022/08/27 03:50:12;;;;;;;9.40;1.98;;;;;;;17.65;66.04;101551.72;5086061;28;20139;-77
2022/08/27 03:52:39;;;;;;;4.25;1.73;;;;;;;17.61;66.17;101547.47;5090259;28;20036;-78
2022/08/27 03:55:08;;;;;;;5.10;1.95;;;;;;;17.59;66.06;101544.03;5083626;28;20041;-78
2022/08/27 03:57:35;;;;;;;6.40;1.80;;;;;;;17.53;66.24;101542.53;5085515;28;20040;-78
2022/08/27 04:00:09;;;;;;;4.25;1.60;;;;;;;17.49;66.53;101551.59;5080702;28;20470;-78
2022/08/27 04:02:41;;;;;;;5.78;2.10;;;;;;;17.46;66.44;101557.97;5075648;28;20041;-78
2022/08/27 04:05:12;;;;;;;6.82;1.80;;;;;;;17.44;66.74;101551.81;5081404;28;20467;-78
2022/08/27 04:07:42;;;;;;;4.82;1.60;;;;;;;17.49;66.65;101554.28;5081334;28;20199;-78
2022/08/27 04:10:13;;;;;;;3.65;1.90;;;;;;;17.46;66.61;101552.63;5091125;28;20090;-78
2022/08/27 04:12:40;;;;;;;9.43;1.90;;;;;;;17.50;66.33;101556.84;5074475;28;20125;-79
2022/08/27 04:15:12;;;;;;;7.70;1.70;;;;;;;17.47;66.39;101549.03;5085302;28;20152;-77
2022/08/27 04:17:40;;;;;;;6.30;2.20;;;;;;;17.45;66.57;101555.38;5075315;28;20090;-76
2022/08/27 04:20:09;;;;;;;5.68;1.65;;;;;;;17.40;66.54;101552.91;5098627;28;20045;-76
2022/08/27 04:22:56;;;;;;;7.95;2.05;;;;;;;17.37;66.93;101551.25;5079663;28;20047;-76
2022/08/27 04:25:24;;;;;;;6.05;1.70;;;;;;;17.39;66.94;101551.19;5101886;27;20103;-76
2022/08/27 04:27:51;;;;;;;6.47;1.98;;;;;;;17.36;66.95;101544.19;5071792;28;20043;-73
2022/08/27 04:30:18;;;;;;;8.30;1.80;;;;;;;17.36;67.20;101546.00;5106163;27;20037;-73
2022/08/27 04:32:45;;;;;;;6.75;2.17;;;;;;;17.38;66.89;101546.81;5087731;28;20750;-78
2022/08/27 04:35:12;;;;;;;4.03;1.60;;;;;;;17.38;66.87;101544.97;5074207;28;20077;-77
2022/08/27 04:37:39;;;;;;;4.55;1.80;;;;;;;17.36;66.88;101546.00;5084168;28;20454;-78
2022/08/27 04:40:11;;;;;;;5.13;1.73;;;;;;;17.38;66.61;101552.13;5086693;28;20542;-76
2022/08/27 04:42:38;;;;;;;6.45;2.30;;;;;;;17.35;66.57;101549.59;5074243;28;20550;-77
2022/08/27 04:45:06;;;;;;;5.05;1.70;;;;;;;17.32;66.72;101561.28;5086014;28;20222;-78
2022/08/27 04:47:34;;;;;;;2.53;1.52;;;;;;;17.32;66.75;101558.63;5089691;28;20036;-76
2022/08/27 04:50:03;;;;;;;7.22;1.88;;;;;;;17.32;66.43;101563.06;5090685;28;20045;-77
2022/08/27 04:52:41;;;;;;;6.60;2.05;;;;;;;17.35;66.09;101565.59;5087180;28;20539;-76
2022/08/27 04:55:10;;;;;;;8.00;1.88;;;;;;;17.32;65.84;101565.72;5082026;28;20514;-76
2022/08/27 04:57:37;;;;;;;3.75;1.75;;;;;;;17.29;65.92;101564.06;5087848;28;20464;-77
2022/08/27 05:00:07;;;;;;;8.05;2.00;;;;;;;17.26;66.11;101560.69;5088463;28;20108;-78
2022/08/27 05:02:34;;;;;;;4.18;2.00;;;;;;;17.27;65.94;101560.63;5089041;28;20500;-77
2022/08/27 05:05:04;;;;;;;4.95;1.85;;;;;;;17.29;65.94;101563.22;5088475;28;20051;-76
2022/08/27 05:07:34;;;;;;;7.47;1.98;;;;;;;17.27;66.25;101560.63;5089732;28;20051;-75
2022/08/27 05:10:01;;;;;;;6.85;1.92;;;;;;;17.34;65.35;101562.06;5088458;28;20072;-76
2022/08/27 05:12:28;;;;;;;4.93;1.70;;;;;;;17.31;65.58;101562.22;5089707;28;20063;-76
2022/08/27 05:14:55;;;;;;;6.13;2.00;;;;;;;17.33;65.24;101562.13;5087670;28;20041;-74
2022/08/27 05:17:22;;;;;;;5.15;1.80;;;;;;;17.27;65.47;101557.94;5089108;28;20045;-76
2022/08/27 05:19:49;;;;;;;7.25;1.95;;;;;;;17.28;65.74;101561.50;5084446;28;20495;-76
2022/08/27 05:22:16;;;;;;;5.68;1.67;;;;;;;17.29;65.86;101555.25;5090001;28;20079;-77
2022/08/27 05:24:44;;;;;;;8.18;2.50;;;;;;;17.28;65.88;101565.00;5086850;28;20044;-78
2022/08/27 05:27:16;;;;;;;5.95;2.15;;;;;;;17.28;66.12;101564.16;5080840;28;20115;-77
2022/08/27 05:29:44;;;;;;;3.42;1.73;;;;;;;17.27;66.33;101565.09;5088313;28;20147;-76
2022/08/27 05:32:11;;;;;;;6.90;2.22;;;;;;;17.32;66.38;101563.06;5087607;28;20145;-76
2022/08/27 05:34:38;;;;;;;6.25;2.05;;;;;;;17.36;66.20;101564.66;5090707;28;20044;-76
2022/08/27 05:37:05;;;;;;;5.20;1.83;;;;;;;17.34;65.81;101564.75;5087980;28;20079;-78
2022/08/27 05:39:33;;;;;;;3.65;1.85;;;;;;;17.31;66.04;101564.00;5086665;28;20064;-79
2022/08/27 05:42:00;;;;;;;7.38;2.30;;;;;;;17.28;66.16;101573.00;5089926;28;20131;-78
2022/08/27 05:44:28;;;;;;;4.13;2.00;;;;;;;17.29;66.25;101593.38;5090949;28;20562;-78
2022/08/27 05:47:10;;;;;;;7.63;2.20;;;;;;;17.28;66.39;101586.31;5090095;28;20040;-77
2022/08/27 05:49:37;;;;;;;5.93;1.98;;;;;;;17.34;66.30;101585.19;5088303;28;20041;-77
2022/08/27 05:52:09;;;;;;;6.47;2.13;;;;;;;17.38;66.54;101582.28;5092300;28;20124;-78
2022/08/27 05:54:38;;;;;;;4.10;1.75;;;;;;;17.44;65.88;101573.16;5089992;28;20044;-77
2022/08/27 05:57:05;;;;;;;3.92;1.67;;;;;;;17.44;65.93;101577.63;5089552;28;20041;-77
2022/08/27 06:02:19;;;;;;;4.63;1.80;;;;;;;17.54;66.06;101577.09;5090882;28;20049;-75
2022/08/27 06:04:47;;;;;;;3.78;2.10;;;;;;;17.62;66.09;101584.75;5088862;28;20186;-75
2022/08/27 06:07:15;;;;;;;6.43;1.95;;;;;;;17.69;65.76;101586.16;5091676;28;20815;-74
2022/08/27 06:09:43;;;;;;;8.02;2.03;;;;;;;17.77;64.97;101584.91;5082263;28;20836;-74
2022/08/27 06:12:10;;;;;;;5.60;2.20;;;;;;;17.75;64.70;101586.81;5086876;28;20048;-75
2022/08/27 06:14:37;;;;;;;6.43;2.58;;;;;;;17.70;64.79;101582.56;5081978;28;20790;-74
2022/08/27 06:17:05;;;;;;;4.72;2.15;;;;;;;17.76;65.35;101583.19;5089420;28;20053;-72
2022/08/27 06:19:33;;;;;;;7.72;2.15;;;;;;;17.88;64.78;101576.41;5079995;28;20041;-72
2022/08/27 06:22:01;;;;;;;7.70;2.47;;;;;;;17.92;63.65;101583.28;5100151;28;20045;-72
2022/08/27 06:24:40;;;;;;;4.95;2.10;;;;;;;17.83;63.82;101593.47;5093540;28;20084;-73
2022/08/27 06:27:18;;;;;;;5.13;2.15;;;;;;;17.78;64.02;101583.97;5087379;28;20037;-73
2022/08/27 06:29:46;;;;;;;5.50;2.03;;;;;;;17.79;64.30;101591.03;5087429;28;20523;-73
2022/08/27 06:32:13;;;;;;;5.47;2.08;;;;;;;17.81;64.28;101594.50;5077649;28;20052;-73
2022/08/27 06:34:41;;;;;;;7.32;2.25;;;;;;;17.83;64.16;101593.47;5077621;28;20132;-73
2022/08/27 06:37:08;;;;;;;7.60;2.40;;;;;;;17.85;64.01;101598.75;5075649;28;20072;-74
2022/08/27 06:39:38;;;;;;;3.88;2.25;;;;;;;17.83;64.40;101595.31;5093506;28;20081;-73
2022/08/27 06:42:11;;;;;;;6.97;2.67;;;;;;;17.93;63.52;101596.56;5086711;28;20041;-73
2022/08/27 06:44:40;;;;;;;6.43;2.58;;;;;;;17.90;63.41;101596.72;5082842;28;20040;-75
2022/08/27 06:47:07;;;;;;;7.45;2.30;;;;;;;17.90;63.67;101604.72;5093401;28;20064;-74
2022/08/27 06:49:34;;;;;;;7.97;2.50;;;;;;;17.85;63.77;101599.59;5109170;27;20128;-74
2022/08/27 06:52:01;;;;;;;8.00;2.25;;;;;;;17.93;64.05;101599.25;5102792;28;20095;-75
2022/08/27 06:54:28;;;;;;;5.93;2.20;;;;;;;18.05;63.77;101597.78;5092297;28;20064;-74
2022/08/27 06:56:58;;;;;;;7.03;2.20;;;;;;;18.08;63.59;101599.44;5076663;28;20041;-74
2022/08/27 06:59:26;;;;;;;7.38;2.60;;;;;;;18.10;63.68;101598.44;5079755;28;20053;-73
2022/08/27 07:01:53;;;;;;;7.68;2.40;;;;;;;18.20;63.10;101601.50;5072938;28;21047;-73
2022/08/27 07:04:24;;;;;;;6.38;2.40;;;;;;;18.27;63.28;101602.91;5097701;28;20531;-73
2022/08/27 07:07:01;;;;;;;6.05;1.98;;;;;;;18.40;63.22;101603.16;5093195;28;20988;-75
2022/08/27 07:09:30;;;;;;;5.80;2.17;;;;;;;18.54;62.90;101602.44;5092844;28;20044;-75
2022/08/27 07:11:59;;;;;;;6.43;2.13;;;;;;;18.61;62.76;101597.66;5088108;28;20546;-74
2022/08/27 07:14:26;;;;;;;6.22;2.38;;;;;;;18.67;62.27;101600.00;5076734;28;20412;-73
2022/08/27 07:16:54;;;;;;;14.90;2.50;;;;;;;18.64;62.08;101600.13;5072790;28;20045;-74
2022/08/27 07:19:21;;;;;;;8.23;2.42;;;;;;;18.61;62.20;101601.16;5073089;28;20033;-74
2022/08/27 07:21:49;;;;;;;5.80;1.90;;;;;;;18.63;61.97;101606.41;5086538;28;20123;-74
2022/08/27 07:24:17;;;;;;;9.48;2.42;;;;;;;18.66;62.22;101602.75;5083259;28;20120;-74
2022/08/27 07:26:46;;;;;;;7.55;2.28;;;;;;;18.77;62.17;101611.91;5080096;28;20037;-74
2022/08/27 07:29:14;;;;;;;5.75;1.80;;;;;;;18.99;61.29;101601.91;5085714;28;20055;-74
2022/08/27 07:31:43;;;;;;;7.07;2.00;;;;;;;19.09;60.63;101604.03;5084723;28;20053;-74
2022/08/27 07:34:11;;;;;;;6.72;2.03;;;;;;;19.17;59.83;101603.63;5072705;28;20037;-75
2022/08/27 07:36:39;;;;;;;4.03;1.95;;;;;;;19.19;59.66;101606.19;5088238;28;20749;-74
2022/08/27 07:39:07;;;;;;;6.05;1.80;;;;;;;19.23;59.09;101608.59;5076041;28;20040;-74
2022/08/27 07:44:24;;;;;;;5.88;1.50;;;;;;;19.29;59.09;101604.75;5112944;27;20156;-75
2022/08/27 07:46:57;;;;;;;5.28;1.85;;;;;;;19.36;59.22;101603.44;5089635;28;20043;-75
2022/08/27 07:49:27;;;;;;;7.13;1.73;;;;;;;19.48;58.65;101606.38;5087328;28;20047;-72
2022/08/27 07:51:55;;;;;;;6.85;1.55;;;;;;;19.51;58.23;101600.88;5086248;28;20069;-72
2022/08/27 07:54:28;;;;;;;9.35;1.92;;;;;;;19.58;58.62;101604.06;5093162;28;20032;-71
2022/08/27 07:56:55;;;;;;;6.00;1.27;;;;;;;19.67;57.82;101600.88;5084815;28;20083;-72
2022/08/27 07:59:24;;;;;;;3.40;1.27;;;;;;;19.82;57.31;101602.66;5071438;28;20645;-74
2022/08/27 08:01:55;;;;;;;9.63;1.67;;;;;;;19.97;55.91;101606.28;5078385;28;20041;-74
2022/08/27 08:04:25;;;;;;;2.30;1.30;;;;;;;20.06;54.73;101599.56;5079466;28;20128;-73
2022/08/27 08:06:54;;;;;;;5.85;1.20;;;;;;;20.11;54.57;101597.44;5090435;28;20194;-72
2022/08/27 08:09:23;;;;;;;4.05;1.27;;;;;;;20.08;53.58;101603.00;5091962;28;20036;-74
2022/08/27 08:11:53;;;;;;;2.38;1.35;;;;;;;19.92;54.63;101602.16;5085579;28;20040;-73
2022/08/27 08:14:20;;;;;;;3.83;1.10;;;;;;;19.88;54.70;101605.97;5086646;28;20407;-74
2022/08/27 08:16:48;;;;;;;3.70;1.33;;;;;;;19.82;54.80;101604.47;5095091;28;20041;-73
2022/08/27 08:19:16;;;;;;;3.90;1.40;;;;;;;19.77;54.90;101599.41;5091417;28;20036;-75
2022/08/27 08:21:44;;;;;;;3.72;1.60;;;;;;;19.71;54.96;101603.28;5083477;28;20071;-75
2022/08/27 08:24:11;;;;;;;3.97;1.50;;;;;;;19.75;54.78;101608.44;5077154;28;20067;-75
2022/08/27 08:26:40;;;;;;;3.85;1.42;;;;;;;19.70;55.21;101603.34;5082527;28;20044;-75
2022/08/27 08:29:08;;;;;;;2.38;1.23;;;;;;;19.88;54.94;101608.66;5080146;28;20533;-75
2022/08/27 08:31:41;;;;;;;2.03;1.10;;;;;;;20.08;53.22;101610.16;5088307;28;20048;-74
2022/08/27 08:34:09;;;;;;;3.30;1.23;;;;;;;20.22;52.85;101614.69;5092051;28;20795;-75
2022/08/27 08:36:42;;;;;;;2.92;1.00;;;;;;;20.27;53.02;101609.94;5082120;28;20044;-74
2022/08/27 08:39:12;;;;;;;4.60;1.30;;;;;;;20.39;52.72;101609.22;5084599;28;20495;-76
2022/08/27 08:41:52;;;;;;;3.20;1.20;;;;;;;20.45;51.64;101608.84;5077403;28;20048;-75
2022/08/27 08:44:31;;;;;;;3.95;1.40;;;;;;;20.46;52.36;101609.69;5081895;28;20048;-73
2022/08/27 08:47:25;;;;;;;5.70;1.20;;;;;;;20.61;52.06;101607.91;5091515;28;20044;-76
2022/08/27 08:50:08;;;;;;;4.60;1.27;;;;;;;20.74;52.02;101611.59;5083346;28;20535;-75
2022/08/27 08:52:58;;;;;;;3.85;1.20;;;;;;;20.92;51.76;101614.09;5086944;28;20524;-75
2022/08/27 08:55:38;;;;;;;4.43;1.38;;;;;;;20.98;51.27;101608.38;5089100;28;20046;-75
2022/08/27 08:58:36;;;;;;;2.95;1.15;;;;;;;21.18;50.63;101612.47;5085553;28;20109;-76
2022/08/27 09:01:08;;;;;;;5.47;1.20;;;;;;;21.37;49.55;101619.34;5081288;28;20442;-75
2022/08/27 09:03:40;;;;;;;3.33;1.15;;;;;;;21.48;50.04;101614.16;5084385;28;20056;-75
2022/08/27 09:06:44;;;;;;;3.13;1.27;;;;;;;21.62;49.16;101618.66;5088258;28;20049;-76
2022/08/27 09:09:29;;;;;;;2.42;1.00;;;;;;;21.62;49.79;101618.66;5068028;28;20524;-76
2022/08/27 09:12:14;;;;;;;2.53;1.25;;;;;;;21.75;49.17;101613.38;5081017;28;20507;-76
2022/08/27 09:15:27;;;;;;;4.70;1.35;;;;;;;21.80;49.44;101621.97;5093595;28;20128;-75
2022/08/27 09:18:11;;;;;;;3.97;0.95;;;;;;;21.85;48.49;101618.97;5073745;28;20489;-77
2022/08/27 09:20:49;;;;;;;4.78;1.00;;;;;;;21.72;48.45;101621.59;5069017;28;20136;-77
2022/08/27 09:23:53;;;;;;;2.90;0.93;;;;;;;21.62;48.63;101626.69;5081982;28;20124;-77
2022/08/27 09:26:26;;;;;;;3.05;0.90;;;;;;;21.76;48.71;101625.81;5085624;28;20041;-77
2022/08/27 09:29:14;;;;;;;3.00;0.95;;;;;;;21.86;48.54;101626.06;5070750;28;20798;-78
2022/08/27 09:32:04;;;;;;;1.98;0.90;;;;;;;21.92;48.69;101632.84;5096757;28;20132;-78
2022/08/27 09:34:38;;;;;;;3.42;1.20;;;;;;;21.93;48.35;101621.16;5082210;28;20033;-77
2022/08/27 09:37:24;;;;;;;3.22;0.80;;;;;;;21.89;48.14;101625.88;5085765;28;20041;-78
2022/08/27 09:40:07;;;;;;;6.03;1.30;;;;;;;21.85;48.92;101619.84;5074909;28;20043;-76
2022/08/27 09:42:55;;;;;;;2.20;0.90;;;;;;;21.83;48.25;101624.44;5075455;28;20048;-76
2022/08/27 09:45:29;;;;;;;4.32;1.20;;;;;;;21.86;48.13;101623.38;5088045;28;20569;-77
2022/08/27 09:48:08;;;;;;;3.60;1.30;;;;;;;21.96;48.66;101627.19;5079458;28;20041;-77
2022/08/27 09:50:51;;;;;;;3.45;1.10;;;;;;;22.22;46.67;101621.91;5089385;28;20495;-76
2022/08/27 09:53:35;;;;;;;5.88;1.42;;;;;;;22.38;46.43;101621.72;5084796;28;20436;-78
2022/08/27 09:56:07;;;;;;;2.10;1.10;;;;;;;22.41;46.65;101608.09;5083639;28;20268;-78
2022/08/27 09:58:44;;;;;;;3.08;1.05;;;;;;;22.36;47.54;101620.09;5075908;28;20851;-77
2022/08/27 10:01:32;;;;;;;3.55;1.20;;;;;;;22.54;47.90;101613.47;5073246;28;20488;-76
2022/08/27 10:04:12;;;;;;;6.32;1.27;;;;;;;22.64;47.54;101617.25;5078190;28;20604;-76
2022/08/27 10:06:48;;;;;;;3.85;0.93;;;;;;;22.70;46.71;101618.66;5075205;28;20052;-76
2022/08/27 10:09:37;;;;;;;4.82;1.30;;;;;;;22.71;46.94;101615.00;5091371;28;20123;-76
2022/08/27 10:12:18;;;;;;;3.33;0.90;;;;;;;22.82;46.44;101619.63;5091537;28;20750;-76
2022/08/27 10:14:58;;;;;;;2.97;1.10;;;;;;;22.82;46.18;101622.31;5087364;28;20041;-76
2022/08/27 10:17:51;;;;;;;2.97;0.95;;;;;;;22.84;45.66;101611.47;5086450;28;20045;-76
2022/08/27 10:21:02;;;;;;;4.53;1.20;;;;;;;22.87;46.30;101612.09;5073718;28;20048;-76
2022/08/27 10:24:19;;;;;;;3.72;0.88;;;;;;;23.05;45.54;101615.31;5086778;28;20064;-76
2022/08/27 10:27:37;;;;;;;4.05;1.13;;;;;;;23.19;44.81;101617.06;5084968;28;20121;-77
2022/08/27 10:30:04;;;;;;;2.67;0.93;;;;;;;23.39;44.09;101614.75;5088420;28;20209;-77
2022/08/27 10:33:16;;;;;;;2.60;0.90;;;;;;;23.35;43.97;101615.97;5092438;28;20041;-78
2022/08/27 10:36:11;;;;;;;3.05;1.10;;;;;;;23.62;44.29;101610.34;5090334;28;20515;-76
2022/08/27 10:39:33;;;;;;;2.28;0.93;;;;;;;23.98;42.81;101611.34;5090229;28;20114;-76
2022/08/27 10:42:17;;;;;;;2.30;0.90;;;;;;;24.05;43.40;101614.44;5074850;28;20052;-75
2022/08/27 10:44:58;;;;;;;4.28;0.90;;;;;;;24.16;42.22;101609.06;5108425;27;20036;-77
2022/08/27 10:47:57;;;;;;;4.22;0.98;;;;;;;24.16;42.28;101606.38;5096668;28;20040;-76
2022/08/27 10:51:15;;;;;;;4.45;0.88;;;;;;;24.30;42.43;101605.34;5107227;28;20119;-77
2022/08/27 10:53:55;;;;;;;3.45;1.23;;;;;;;24.23;42.39;101598.69;5099868;27;20482;-78
2022/08/27 10:56:34;;;;;;;2.70;0.77;;;;;;;24.03;42.25;101606.44;5092056;28;20150;-78
2022/08/27 10:59:42;;;;;;;4.40;1.00;;;;;;;23.85;42.57;101603.28;5094038;28;20037;-79
2022/08/27 11:02:18;;;;;;;2.55;0.90;;;;;;;24.18;42.18;101603.56;5091110;28;20072;-78
2022/08/27 11:04:52;;;;;;;1.80;0.70;;;;;;;24.28;42.19;101599.19;5090053;28;20048;-77
2022/08/27 11:07:36;;;;;;;3.95;1.00;;;;;;;24.14;41.24;101602.06;5093040;28;20045;-76
2022/08/27 11:10:17;;;;;;;;;;;;;;;23.85;42.77;101597.91;5088749;28;20049;-76
2022/08/27 11:12:53;;;;;;;5.45;1.20;;;;;;;23.89;42.85;101595.84;5088299;28;19947;-76
2022/08/27 11:15:29;;;;;;;;;;;;;;;24.18;42.06;101590.94;5088267;28;20036;-76
2022/08/27 11:18:07;;;;;;;4.50;1.08;;;;;;;24.58;41.98;101595.09;5090099;28;19925;-77
2022/08/27 11:20:48;;;;;;;2.60;0.88;;;;;;;24.69;41.10;101593.44;5088178;28;20122;-76
2022/08/27 11:23:44;;;;;;;8.05;1.40;;;;;;;24.53;40.74;101597.28;5086659;28;20163;-76
2022/08/27 11:26:13;;;;;;;4.32;0.95;;;;;;;24.38;41.19;101588.56;5089826;28;20082;-78
2022/08/27 11:28:48;;;;;;;5.03;1.02;;;;;;;24.26;40.56;101589.53;5089899;28;20049;-77
2022/08/27 11:31:47;;;;;;;5.38;1.20;;;;;;;24.07;41.82;101590.06;5091631;27;20119;-78
2022/08/27 11:34:32;;;;;;;2.92;0.90;;;;;;;23.97;41.97;101589.88;5091060;28;20074;-77
2022/08/27 11:37:35;;;;;;;3.53;1.00;;;;;;;23.88;41.55;101591.44;5091551;28;20530;-75
2022/08/27 11:40:39;;;;;;;2.28;1.00;;;;;;;23.95;41.31;101595.41;5092615;28;20098;-77
2022/08/27 11:43:17;;;;;;;2.30;0.85;;;;;;;24.00;42.09;101589.66;5090050;28;20071;-71
2022/08/27 11:46:07;;;;;;;2.95;0.82;;;;;;;24.24;41.08;101589.63;5091702;28;20047;-71
2022/08/27 11:48:42;;;;;;;3.58;0.90;;;;;;;24.57;40.54;101577.22;5088305;28;20044;-71
2022/08/27 11:51:29;;;;;;;3.40;0.90;;;;;;;24.73;40.04;101587.69;5090779;28;20068;-73
2022/08/27 11:54:05;;;;;;;2.55;0.65;;;;;;;24.57;40.18;101588.00;5092253;28;20602;-73
2022/08/27 11:56:41;;;;;;;5.18;0.90;;;;;;;24.32;40.51;101592.56;5087414;28;20037;-73
2022/08/27 11:59:25;;;;;;;2.45;0.85;;;;;;;24.15;41.05;101593.91;5089160;28;20070;-72
2022/08/27 12:02:08;;;;;;;3.92;1.00;;;;;;;24.14;41.39;101594.00;5098040;27;20035;-73
2022/08/27 12:04:41;;;;;;;2.05;0.85;;;;;;;24.23;41.77;101592.44;5093470;28;20963;-72
2022/08/27 12:07:16;;;;;;;7.10;1.15;;;;;;;24.33;41.22;101593.47;5103950;28;20559;-73
2022/08/27 12:09:55;;;;;;;1.33;0.52;;;;;;;24.44;40.13;101590.78;5097763;27;20551;-73